createdAt,value
2018-09-21T00:04:43.502Z,3.85
2018-09-21T00:10:47.053Z,3.83
2018-09-21T00:16:50.562Z,3.70
2018-09-21T00:22:53.974Z,4.00
2018-09-21T00:28:57.593Z,4.28
2018-09-21T00:35:01.243Z,3.70
2018-09-21T00:47:43.206Z,4.07
2018-09-21T00:53:47.824Z,4.25
2018-09-21T00:59:51.335Z,3.47
2018-09-21T01:05:54.743Z,3.80
2018-09-21T01:11:58.654Z,4.37
2018-09-21T01:18:02.345Z,4.27
2018-09-21T01:24:06.181Z,4.03
2018-09-21T01:30:10.246Z,4.20
2018-09-21T01:36:14.225Z,4.27
2018-09-21T01:42:17.909Z,3.97
2018-09-21T01:48:21.621Z,4.30
2018-09-21T01:54:25.746Z,4.67
2018-09-21T02:00:29.246Z,4.27
2018-09-21T02:06:33.380Z,4.23
2018-09-21T02:12:37.090Z,4.10
2018-09-21T02:18:40.730Z,4.35
2018-09-21T02:24:44.956Z,4.30
2018-09-21T02:30:51.741Z,4.00
2018-09-21T02:36:55.464Z,3.60
2018-09-21T02:43:05.335Z,4.77
2018-09-21T02:49:09.351Z,4.27
2018-09-21T02:55:13.457Z,4.40
2018-09-21T03:01:21.584Z,3.77
2018-09-21T03:07:25.861Z,4.50
2018-09-21T03:13:29.260Z,4.70
2018-09-21T03:19:32.814Z,4.57
2018-09-21T03:25:36.301Z,4.67
2018-09-21T03:31:39.957Z,4.60
2018-09-21T03:37:43.766Z,4.57
2018-09-21T03:43:47.499Z,4.47
2018-09-21T03:49:51.254Z,4.17
2018-09-21T03:55:56.552Z,4.33
2018-09-21T04:02:00.455Z,4.43
2018-09-21T04:08:04.350Z,4.83
2018-09-21T04:14:07.730Z,4.13
2018-09-21T04:20:11.873Z,4.20
2018-09-21T04:26:15.382Z,4.65
2018-09-21T04:32:19.200Z,4.53
2018-09-21T04:38:22.593Z,5.12
2018-09-21T04:44:26.105Z,5.17
2018-09-21T04:50:31.013Z,4.87
2018-09-21T04:56:35.105Z,4.50
2018-09-21T05:02:38.881Z,5.10
2018-09-21T05:08:43.191Z,5.67
2018-09-21T05:14:47.556Z,5.25
2018-09-21T05:20:51.889Z,5.70
2018-09-21T05:26:55.722Z,6.00
2018-09-21T05:32:59.407Z,6.35
2018-09-21T05:39:03.471Z,5.85
2018-09-21T05:45:07.369Z,5.80
2018-09-21T05:51:10.986Z,5.80
2018-09-21T05:57:14.433Z,6.83
2018-09-21T06:03:18.240Z,5.78
2018-09-21T06:09:22.405Z,5.87
2018-09-21T06:15:26.723Z,5.50
2018-09-21T06:21:31.259Z,5.35
2018-09-21T06:27:36.156Z,4.70
2018-09-21T06:33:41.010Z,4.67
2018-09-21T06:39:44.570Z,4.87
2018-09-21T06:45:48.385Z,4.50
2018-09-21T06:51:52.201Z,3.95
2018-09-21T06:57:56.099Z,3.70
2018-09-21T07:04:00.521Z,3.58
2018-09-21T07:10:05.293Z,3.67
2018-09-21T07:16:09.759Z,3.80
2018-09-21T07:22:14.518Z,3.10
2018-09-21T07:28:18.047Z,2.87
2018-09-21T07:34:22.794Z,2.67
2018-09-21T07:40:26.393Z,2.40
2018-09-21T07:46:30.181Z,2.85
2018-09-21T07:52:33.826Z,2.30
2018-09-21T07:58:38.446Z,2.62
2018-09-21T08:04:42.165Z,2.20
2018-09-21T08:10:45.668Z,2.30
2018-09-21T08:16:49.268Z,2.42
2018-09-21T08:22:54.871Z,2.55
2018-09-21T08:28:58.647Z,2.35
2018-09-21T08:35:02.126Z,3.37
2018-09-21T08:41:06.187Z,3.67
2018-09-21T08:47:10.038Z,2.73
2018-09-21T08:53:13.463Z,2.03
2018-09-21T08:59:19.838Z,1.67
2018-09-21T09:05:25.325Z,1.80
2018-09-21T09:11:28.958Z,2.10
2018-09-21T09:17:33.612Z,2.03
2018-09-21T09:23:38.327Z,2.30
2018-09-21T09:29:41.974Z,4.73
2018-09-21T09:35:45.491Z,4.40
2018-09-21T09:41:49.609Z,2.30
2018-09-21T09:47:53.341Z,1.87
2018-09-21T09:53:57.251Z,2.33
2018-09-21T10:00:01.056Z,2.27
2018-09-21T10:06:05.318Z,2.67
2018-09-21T10:12:08.855Z,2.40
2018-09-21T10:18:12.650Z,2.90
2018-09-21T10:24:16.047Z,2.93
2018-09-21T10:30:19.483Z,3.10
2018-09-21T10:36:22.936Z,2.90
2018-09-21T10:42:27.216Z,3.57
2018-09-21T10:48:31.202Z,2.70
2018-09-21T10:54:35.541Z,2.97
2018-09-21T11:00:45.546Z,3.73
2018-09-21T11:06:49.792Z,3.00
2018-09-21T11:12:53.852Z,2.93
2018-09-21T11:18:57.206Z,3.07
2018-09-21T11:25:00.671Z,2.97
2018-09-21T11:31:04.246Z,3.40
2018-09-21T11:37:07.639Z,3.10
2018-09-21T11:43:11.158Z,3.37
2018-09-21T11:49:14.536Z,3.53
2018-09-21T11:55:18.005Z,2.50
2018-09-21T12:01:21.620Z,3.00
2018-09-21T12:07:25.311Z,8.40
2018-09-21T12:13:30.664Z,4.10
2018-09-21T12:19:34.238Z,2.27
2018-09-21T12:25:38.363Z,2.50
2018-09-21T12:31:41.983Z,2.40
2018-09-21T12:37:45.369Z,1.60
2018-09-21T12:43:48.975Z,1.30
2018-09-21T12:49:52.489Z,1.07
2018-09-21T12:55:55.934Z,1.03
2018-09-21T13:01:59.438Z,1.30
2018-09-21T13:08:02.878Z,1.00
2018-09-21T13:14:06.575Z,0.67
2018-09-21T13:20:10.099Z,1.00
2018-09-21T13:26:13.540Z,0.90
2018-09-21T13:32:16.954Z,0.67
2018-09-21T13:38:20.510Z,1.10
2018-09-21T13:44:23.872Z,0.83
2018-09-21T13:50:27.297Z,0.57
2018-09-21T13:56:30.891Z,0.63
2018-09-21T14:02:35.060Z,0.63
2018-09-21T14:08:39.294Z,0.90
2018-09-21T14:14:44.282Z,0.60
2018-09-21T14:20:48.487Z,0.80
2018-09-21T14:26:52.094Z,1.03
2018-09-21T14:32:55.973Z,0.80
2018-09-21T14:39:00.497Z,1.40
2018-09-21T14:45:04.312Z,1.00
2018-09-21T14:51:08.427Z,1.07
2018-09-21T14:57:12.046Z,0.73
2018-09-21T15:03:15.946Z,1.20
2018-09-21T15:09:19.695Z,1.67
2018-09-21T15:15:24.077Z,1.10
2018-09-21T15:21:28.517Z,1.10
2018-09-21T15:27:32.564Z,1.53
2018-09-21T15:33:37.036Z,1.20
2018-09-21T15:39:41.712Z,1.20
2018-09-21T15:45:45.758Z,1.20
2018-09-21T15:51:50.749Z,0.77
2018-09-21T15:57:55.460Z,1.10
2018-09-21T16:04:01.162Z,1.10
2018-09-21T16:10:04.743Z,1.00
2018-09-21T16:16:09.764Z,1.10
2018-09-21T16:22:13.688Z,0.93
2018-09-21T16:28:17.851Z,0.73
2018-09-21T16:34:22.495Z,1.00
2018-09-21T16:40:26.971Z,0.73
2018-09-21T16:46:31.781Z,1.40
2018-09-21T16:52:36.528Z,1.20
2018-09-21T16:58:40.043Z,1.23
2018-09-21T17:04:44.732Z,1.93
2018-09-21T17:10:48.934Z,1.80
2018-09-21T17:16:53.189Z,1.60
2018-09-21T17:22:57.177Z,1.47
2018-09-21T17:29:02.960Z,1.27
2018-09-21T17:35:06.750Z,1.57
2018-09-21T17:47:53.270Z,1.30
2018-09-21T17:53:57.268Z,1.57
2018-09-21T18:00:01.579Z,2.57
2018-09-21T18:06:06.767Z,2.93
2018-09-21T18:12:12.955Z,1.63
2018-09-21T18:18:16.494Z,1.50
2018-09-21T18:24:20.005Z,1.60
2018-09-21T18:30:24.927Z,1.40
2018-09-21T18:36:28.974Z,1.50
2018-09-21T18:42:33.594Z,6.33
2018-09-21T18:48:39.139Z,2.90
2018-09-21T18:54:43.916Z,2.17
2018-09-21T19:00:48.654Z,2.87
2018-09-21T19:06:53.623Z,2.17
2018-09-21T19:12:59.372Z,2.03
2018-09-21T19:19:04.801Z,1.50
2018-09-21T19:25:15.126Z,1.90
2018-09-21T19:31:19.338Z,1.80
2018-09-21T19:37:23.987Z,2.17
2018-09-21T19:43:28.333Z,2.10
2018-09-21T19:49:33.724Z,1.60
2018-09-21T19:55:44.596Z,1.60
2018-09-21T20:01:54.267Z,1.80
2018-09-21T20:08:00.934Z,1.60
2018-09-21T20:14:07.772Z,2.00
2018-09-21T20:20:13.391Z,1.60
2018-09-21T20:27:27.382Z,1.70
2018-09-21T20:33:32.672Z,1.97
2018-09-21T20:39:37.160Z,1.53
2018-09-21T20:45:41.161Z,1.77
2018-09-21T20:51:45.986Z,1.93
2018-09-21T20:57:50.246Z,2.30
2018-09-21T21:03:55.066Z,2.33
2018-09-21T21:10:05.244Z,2.47
2018-09-21T21:16:09.477Z,1.83
2018-09-21T21:22:13.469Z,1.87
2018-09-21T21:28:18.075Z,2.60
2018-09-21T21:34:22.115Z,2.33
2018-09-21T21:40:26.092Z,2.23
2018-09-21T21:46:31.263Z,2.47
2018-09-21T21:52:35.493Z,2.50
2018-09-21T21:58:39.233Z,2.67
2018-09-21T22:04:43.786Z,2.40
2018-09-21T22:10:47.681Z,2.57
2018-09-21T22:16:51.373Z,3.07
2018-09-21T22:22:56.109Z,2.77
2018-09-21T22:29:00.214Z,3.03
2018-09-21T22:35:03.998Z,2.47
2018-09-21T22:41:08.781Z,2.93
2018-09-21T22:47:12.565Z,3.30
2018-09-21T22:53:16.325Z,2.93
2018-09-21T22:59:26.954Z,3.17
2018-09-21T23:05:30.758Z,2.97
2018-09-21T23:11:35.257Z,3.13
2018-09-21T23:17:39.627Z,2.67
2018-09-21T23:23:43.470Z,3.50
2018-09-21T23:29:47.573Z,2.90
2018-09-21T23:35:51.341Z,2.70
2018-09-21T23:41:56.113Z,3.00
2018-09-21T23:47:59.810Z,3.20
2018-09-21T23:54:03.660Z,2.90
